WetterOnline ( http://www.wetteronline.de )

Wetter aktuell Kassel

Aktuelles Wetter: Warburg (237m)

6-stündlich | Neueste Meldungen
Ortszeit Temperatur Wetter
Di, 25.09. 8:00 4.9° C leicht bewölkt
Di, 25.09. 2:00 5.4° C leicht bewölkt
Mo, 24.09. 20:00 7.4° C Sprühregen
Mo, 24.09. 14:00 12.1° C wolkig
Mo, 24.09. 8:00 6.8° C wolkig
Mo, 24.09. 2:00 7.9° C wolkig
So, 23.09. 20:00 7.6° C leichter Regen
So, 23.09. 14:00 10.8° C Regen
Ortszeit Temperatur Wetter
Di, 25.09. 8:00 4.9° C leicht bewölkt
Di, 25.09. 7:50 4.9° C leicht bewölkt
Di, 25.09. 7:40 4.8° C wolkenlos
Di, 25.09. 7:30 4.8° C fast wolkenlos
Di, 25.09. 7:20 4.8° C fast wolkenlos
Di, 25.09. 7:10 4.8° C leicht bewölkt
Di, 25.09. 7:00 5.3° C leicht bewölkt
Di, 25.09. 6:30 4.6° C leicht bewölkt
Di, 25.09. 6:00 5.5° C leicht bewölkt
Di, 25.09. 5:30 5.2° C leicht bewölkt
Di, 25.09. 5:00 4.9° C leicht bewölkt
Ortszeit Relative Feuchte Sichtweite
Di, 25.09. 8:00 93% 12 km
Di, 25.09. 2:00 93% 35 km
Mo, 24.09. 20:00 85% 29 km
Mo, 24.09. 14:00 58% 45 km
Mo, 24.09. 8:00 84% 35 km
Mo, 24.09. 2:00 87% 28 km
So, 23.09. 20:00 90% 21 km
So, 23.09. 14:00 97% 3.9 km
Ortszeit Relative Feuchte Sichtweite
Di, 25.09. 8:00 93% 12 km
Di, 25.09. 7:50 93% -
Di, 25.09. 7:40 95% -
Di, 25.09. 7:30 95% 13 km
Di, 25.09. 7:20 95% -
Di, 25.09. 7:10 93% -
Di, 25.09. 7:00 93% 16 km
Di, 25.09. 6:30 95% 15 km
Di, 25.09. 6:00 91% 19 km
Di, 25.09. 5:30 93% 29 km
Di, 25.09. 5:00 93% 30 km
Ortszeit Niederschlagsmenge Niederschlagsart
Di, 25.09. 8:00 0.1 l/m2 in 12 Std. -
Di, 25.09. 2:00 0.1 l/m2 in 6 Std. Regen
Mo, 24.09. 20:00 0.5 l/m2 in 12 Std. Regen
Mo, 24.09. 14:00 0.1 l/m2 in 6 Std. Regen
Mo, 24.09. 8:00 1 l/m2 in 12 Std. Sprühregen
Mo, 24.09. 2:00 1 l/m2 in 6 Std. Regen
So, 23.09. 20:00 17 l/m2 in 12 Std. Regen
So, 23.09. 14:00 5 l/m2 in 6 Std. Regen
Ortszeit Niederschlagsmenge Niederschlagsart
Di, 25.09. 8:00 0.0 l/m2 in 1 Std. -
Di, 25.09. 7:50 keine Meldung -
Di, 25.09. 7:40 keine Meldung -
Di, 25.09. 7:30 0.0 l/m2 in 1 Std. -
Di, 25.09. 7:20 keine Meldung -
Di, 25.09. 7:10 keine Meldung -
Di, 25.09. 7:00 0.0 l/m2 in 1 Std. -
Di, 25.09. 6:30 0.0 l/m2 in 1 Std. -
Di, 25.09. 6:00 0.0 l/m2 in 1 Std. -
Di, 25.09. 5:30 0.0 l/m2 in 1 Std. -
Di, 25.09. 5:00 0.0 l/m2 in 1 Std. -
Ortszeit Stärke Spitze Richtung
km/h Bft. km/h Grad Sektor
Di, 25.09. 8:00 7 2 19 270° W
Di, 25.09. 2:00 11 2 40 290° W
Mo, 24.09. 20:00 25 4 50 330° NW
Mo, 24.09. 14:00 28 4 52 290° W
Mo, 24.09. 8:00 15 3 39 280° W
Mo, 24.09. 2:00 20 4 35 290° W
So, 23.09. 20:00 20 4 54 340° N
So, 23.09. 14:00 11 2 22 30° NO
Ortszeit Stärke Spitze Richtung
km/h Bft. km/h Grad Sektor
Di, 25.09. 8:00 7 2 11 270° W
Di, 25.09. 7:50 7 2 - 270° W
Di, 25.09. 7:40 7 2 - 280° W
Di, 25.09. 7:30 7 2 11 280° W
Di, 25.09. 7:20 7 2 - 280° W
Di, 25.09. 7:10 7 2 - 290° W
Di, 25.09. 7:00 11 2 18 280° W
Di, 25.09. 6:30 6 1 15 260° W
Di, 25.09. 6:00 9 2 19 270° W
Di, 25.09. 5:30 7 2 11 270° W
Di, 25.09. 5:00 6 1 11 280° W
Ortszeit Untergrenze Bedeckung Gattung
total tief tief mittel hoch
Di, 25.09. 8:00 1350 m 2/8 2/8 - - -
Di, 25.09. 2:00 2700 m 5/8 1/8 - - -
Mo, 24.09. 20:00 780 m 8/8 8/8 - - -
Mo, 24.09. 14:00 1050 m 6/8 6/8 - - -
Mo, 24.09. 8:00 1110 m 5/8 6/8 - - -
Mo, 24.09. 2:00 510 m 6/8 6/8 - - -
So, 23.09. 20:00 1230 m 7/8 8/8 - - -
So, 23.09. 14:00 90 m 7/8 7/8 - - -
Ortszeit Bedeckungsgrad in Achtel und Wolkenuntergrenze
Di, 25.09. 8:00 2(1350m)
Di, 25.09. 7:50 2(1350m)
Di, 25.09. 7:40 keine Wolken
Di, 25.09. 7:30 1(1290m)
Di, 25.09. 7:20 1(1290m) 1(2400m)
Di, 25.09. 7:10 2(1260m)
Di, 25.09. 7:00 3(1230m) 3(1800m)
Di, 25.09. 6:30 4(1410m) 5(1800m)
Di, 25.09. 6:00 3(1380m) 3(1500m)
Di, 25.09. 5:30 4(1440m)
Di, 25.09. 5:00 1(1350m) 3(2700m)
Ortszeit Luftdruck NN (hPa) Tendenz (hPa in 3 Std.)
Di, 25.09. 8:00 1039 + 1,1
Di, 25.09. 2:00 1037 + 1,3
Mo, 24.09. 20:00 1034 + 1,7
Mo, 24.09. 14:00 1031 + 0,6
Mo, 24.09. 8:00 1028 + 2,2
Mo, 24.09. 2:00 1023 + 3,6
So, 23.09. 20:00 1013 + 6,9
So, 23.09. 14:00 1009 - 3,2
Ortszeit Luftdruck NN (hPa) Tendenz (hPa in 3 Std.)
Di, 25.09. 8:00 1039 + 1,1
Di, 25.09. 7:50 1039 keine Meldung
Di, 25.09. 7:40 1039 keine Meldung
Di, 25.09. 7:30 1039 + 0,9
Di, 25.09. 7:20 1039 keine Meldung
Di, 25.09. 7:10 1039 keine Meldung
Di, 25.09. 7:00 1038 + 0,8
Di, 25.09. 6:30 1038 + 0,7
Di, 25.09. 6:00 1038 + 0,7
Di, 25.09. 5:30 1038 + 0,8
Di, 25.09. 5:00 1038 + 0,6
Ortszeit Schneehöhe (cm)
Di, 25.09. 8:00 -
Di, 25.09. 2:00 -
Mo, 24.09. 20:00 -
Mo, 24.09. 14:00 -
Mo, 24.09. 8:00 -
Mo, 24.09. 2:00 -
So, 23.09. 20:00 -
So, 23.09. 14:00 -
Ortszeit Schneehöhe (cm)
Di, 25.09. 8:00 -
Di, 25.09. 7:50 -
Di, 25.09. 7:40 -
Di, 25.09. 7:30 -
Di, 25.09. 7:20 -
Di, 25.09. 7:10 -
Di, 25.09. 7:00 -
Di, 25.09. 6:30 -
Di, 25.09. 6:00 -
Di, 25.09. 5:30 -
Di, 25.09. 5:00 -
Link zu dieser Seite / Seite empfehlen

Das Wetter in ...